createdAt,value
2023-01-19T00:01:30.110Z,9.45
2023-01-19T00:03:56.700Z,9.15
2023-01-19T00:06:25.327Z,8.10
2023-01-19T00:08:51.982Z,9.68
2023-01-19T00:11:19.433Z,12.05
2023-01-19T00:13:50.510Z,9.40
2023-01-19T00:16:18.733Z,8.80
2023-01-19T00:18:46.199Z,11.25
2023-01-19T00:21:14.975Z,13.25
2023-01-19T00:23:42.685Z,13.48
2023-01-19T00:26:10.702Z,15.07
2023-01-19T00:28:37.302Z,9.27
2023-01-19T00:31:03.924Z,8.07
2023-01-19T00:33:30.725Z,13.02
2023-01-19T00:35:59.602Z,12.13
2023-01-19T00:38:26.204Z,9.68
2023-01-19T00:40:52.826Z,9.20
2023-01-19T00:43:19.537Z,13.27
2023-01-19T00:45:46.326Z,12.20
2023-01-19T00:48:14.074Z,9.18
2023-01-19T00:50:40.666Z,10.13
2023-01-19T00:53:07.225Z,12.25
2023-01-19T00:55:33.960Z,10.75
2023-01-19T00:58:00.711Z,10.45
2023-01-19T01:00:27.435Z,12.13
2023-01-19T01:02:54.614Z,16.00
2023-01-19T01:05:22.082Z,12.00
2023-01-19T01:07:49.662Z,12.52
2023-01-19T01:10:26.411Z,11.55
2023-01-19T01:12:56.799Z,12.52
2023-01-19T01:15:39.957Z,13.95
2023-01-19T01:18:06.679Z,10.68
2023-01-19T01:20:34.797Z,11.20
2023-01-19T01:23:01.933Z,10.68
2023-01-19T01:25:31.123Z,10.05
2023-01-19T01:27:58.853Z,9.65
2023-01-19T01:30:25.437Z,10.85
2023-01-19T01:32:52.187Z,10.02
2023-01-19T01:35:18.947Z,15.73
2023-01-19T01:37:46.756Z,14.05
2023-01-19T01:40:16.403Z,12.30
2023-01-19T01:42:43.894Z,14.80
2023-01-19T01:45:30.733Z,14.20
2023-01-19T01:48:15.741Z,13.85
2023-01-19T01:51:08.311Z,10.25
2023-01-19T01:53:36.970Z,11.70
2023-01-19T01:56:10.007Z,10.77
2023-01-19T01:58:37.960Z,11.35
2023-01-19T02:01:25.740Z,14.13
2023-01-19T02:03:56.758Z,10.95
2023-01-19T02:06:24.185Z,12.10
2023-01-19T02:09:29.081Z,12.85
2023-01-19T02:12:14.475Z,12.43
2023-01-19T02:14:42.202Z,11.50
2023-01-19T02:17:08.811Z,10.18
2023-01-19T02:19:41.961Z,12.13
2023-01-19T02:22:24.337Z,12.40
2023-01-19T02:24:51.643Z,9.85
2023-01-19T02:27:19.151Z,10.82
2023-01-19T02:29:45.901Z,12.32
2023-01-19T02:32:12.926Z,18.65
2023-01-19T02:34:39.586Z,9.88
2023-01-19T02:37:11.492Z,14.10
2023-01-19T02:39:53.856Z,11.48
2023-01-19T02:42:44.530Z,13.27
2023-01-19T02:45:14.593Z,15.13
2023-01-19T02:47:46.039Z,12.80
2023-01-19T02:50:39.144Z,14.75
2023-01-19T02:53:24.352Z,15.32
2023-01-19T02:56:07.169Z,12.60
2023-01-19T02:58:55.486Z,11.07
2023-01-19T03:01:34.960Z,13.32
2023-01-19T03:04:22.998Z,16.17
2023-01-19T03:07:00.978Z,11.13
2023-01-19T03:09:50.989Z,15.50
2023-01-19T03:12:42.211Z,21.73
2023-01-19T03:15:22.316Z,14.82
2023-01-19T03:17:51.470Z,14.02
2023-01-19T03:20:22.894Z,12.88
2023-01-19T03:22:54.162Z,11.55
2023-01-19T03:25:23.980Z,16.42
2023-01-19T03:27:54.230Z,12.77
2023-01-19T03:30:27.303Z,12.43
2023-01-19T03:33:05.153Z,11.77
2023-01-19T03:35:35.038Z,14.60
2023-01-19T03:38:06.660Z,14.93
2023-01-19T03:40:34.525Z,11.82
2023-01-19T03:43:03.413Z,11.38
2023-01-19T03:45:33.653Z,11.02
2023-01-19T03:48:00.267Z,11.50
2023-01-19T03:50:30.950Z,8.02
2023-01-19T03:53:12.529Z,8.00
2023-01-19T03:55:42.302Z,8.07
2023-01-19T03:58:09.161Z,7.43
2023-01-19T04:00:36.627Z,7.50
2023-01-19T04:03:04.731Z,7.35
2023-01-19T04:05:32.692Z,7.97
2023-01-19T04:07:59.327Z,6.45
2023-01-19T04:10:26.111Z,5.95
2023-01-19T04:12:58.376Z,6.30
2023-01-19T04:15:25.838Z,9.00
2023-01-19T04:17:52.518Z,6.70
2023-01-19T04:20:19.346Z,6.95
2023-01-19T04:22:45.913Z,5.82
2023-01-19T04:25:12.733Z,6.90
2023-01-19T04:27:39.415Z,6.68
2023-01-19T04:30:06.799Z,5.65
2023-01-19T04:32:33.535Z,6.28
2023-01-19T04:35:01.150Z,5.28
2023-01-19T04:37:27.989Z,5.80
2023-01-19T04:39:54.587Z,5.55
2023-01-19T04:42:21.717Z,5.38
2023-01-19T04:44:48.596Z,5.43
2023-01-19T04:47:15.533Z,6.63
2023-01-19T04:49:42.213Z,6.68
2023-01-19T04:52:08.928Z,5.50
2023-01-19T04:54:35.577Z,4.78
2023-01-19T04:57:02.185Z,5.38
2023-01-19T04:59:28.821Z,5.28
2023-01-19T05:01:56.629Z,6.07
2023-01-19T05:04:25.779Z,5.18
2023-01-19T05:09:41.731Z,4.82
2023-01-19T05:12:08.702Z,4.80
2023-01-19T05:14:35.299Z,4.97
2023-01-19T05:17:03.279Z,4.93
2023-01-19T05:19:29.864Z,4.78
2023-01-19T05:21:56.577Z,4.18
2023-01-19T05:24:23.094Z,5.55
2023-01-19T05:26:49.834Z,4.55
2023-01-19T05:29:16.706Z,4.75
2023-01-19T05:31:43.371Z,4.80
2023-01-19T05:34:12.081Z,5.65
2023-01-19T05:36:38.876Z,4.75
2023-01-19T05:39:05.503Z,6.32
2023-01-19T05:41:32.750Z,3.50
2023-01-19T05:44:00.762Z,4.95
2023-01-19T05:46:27.457Z,8.98
2023-01-19T05:48:54.051Z,3.85
2023-01-19T05:51:20.591Z,4.50
2023-01-19T05:53:47.261Z,3.88
2023-01-19T05:56:13.937Z,4.53
2023-01-19T05:58:40.709Z,4.32
2023-01-19T06:01:09.353Z,4.38
2023-01-19T06:03:37.507Z,5.22
2023-01-19T06:06:04.501Z,3.20
2023-01-19T06:08:31.675Z,3.20
2023-01-19T06:10:58.381Z,3.60
2023-01-19T06:13:25.067Z,2.78
2023-01-19T06:16:01.969Z,6.03
2023-01-19T06:20:58.861Z,3.22
2023-01-19T06:23:31.810Z,7.45
2023-01-19T06:25:58.797Z,4.28
2023-01-19T06:28:25.464Z,4.93
2023-01-19T06:30:53.955Z,4.88
2023-01-19T06:33:24.092Z,4.50
2023-01-19T06:35:51.994Z,4.65
2023-01-19T06:38:19.361Z,2.60
2023-01-19T06:40:53.347Z,3.53
2023-01-19T06:43:21.357Z,4.43
2023-01-19T06:45:48.243Z,5.22
2023-01-19T06:48:15.351Z,10.40
2023-01-19T06:50:41.994Z,5.80
2023-01-19T06:53:08.629Z,5.90
2023-01-19T06:55:36.527Z,6.10
2023-01-19T06:58:03.529Z,5.13
2023-01-19T07:00:30.358Z,8.15
2023-01-19T07:02:57.258Z,10.02
2023-01-19T07:05:24.513Z,4.53
2023-01-19T07:07:55.655Z,2.00
2023-01-19T07:10:23.191Z,5.80
2023-01-19T07:12:50.140Z,1.40
2023-01-19T07:15:20.156Z,6.35
2023-01-19T07:17:46.802Z,3.33
2023-01-19T07:20:14.640Z,4.75
2023-01-19T07:22:46.572Z,3.63
2023-01-19T07:25:14.364Z,2.13
2023-01-19T07:27:40.994Z,3.50
2023-01-19T07:30:08.700Z,5.50
2023-01-19T07:32:36.107Z,5.85
2023-01-19T07:35:03.092Z,9.82
2023-01-19T07:37:29.883Z,5.43
2023-01-19T07:39:56.459Z,1.92
2023-01-19T07:42:23.083Z,4.30
2023-01-19T07:44:49.648Z,6.32
2023-01-19T07:47:16.355Z,4.25
2023-01-19T07:49:42.952Z,6.78
2023-01-19T07:52:10.179Z,5.32
2023-01-19T07:54:36.905Z,3.70
2023-01-19T07:57:03.640Z,8.82
2023-01-19T07:59:31.171Z,4.22
2023-01-19T08:01:59.644Z,4.47
2023-01-19T08:04:27.441Z,8.15
2023-01-19T08:06:56.102Z,14.32
2023-01-19T08:09:23.949Z,5.10
2023-01-19T08:11:50.690Z,3.45
2023-01-19T08:14:17.347Z,5.32
2023-01-19T08:16:44.463Z,4.13
2023-01-19T08:19:11.225Z,5.70
2023-01-19T08:21:39.051Z,6.05
2023-01-19T08:24:06.091Z,10.40
2023-01-19T08:26:35.419Z,3.80
2023-01-19T08:29:05.255Z,10.05
2023-01-19T08:31:32.293Z,4.97
2023-01-19T08:33:59.100Z,6.15
2023-01-19T08:36:26.122Z,11.15
2023-01-19T08:38:52.892Z,6.57
2023-01-19T08:41:19.697Z,7.85
2023-01-19T08:43:46.467Z,5.25
2023-01-19T08:46:17.140Z,12.40
2023-01-19T08:48:53.731Z,10.68
2023-01-19T08:51:20.763Z,9.73
2023-01-19T08:53:47.694Z,3.55
2023-01-19T08:56:14.980Z,16.33
2023-01-19T08:58:45.678Z,7.45
2023-01-19T09:01:17.138Z,8.73
2023-01-19T09:03:44.525Z,10.13
2023-01-19T09:06:14.696Z,6.53
2023-01-19T09:08:41.304Z,4.38
2023-01-19T09:11:12.693Z,10.55
2023-01-19T09:13:40.041Z,8.43
2023-01-19T09:16:08.040Z,10.30
2023-01-19T09:18:35.770Z,7.45
2023-01-19T09:21:04.045Z,8.35
2023-01-19T09:23:30.953Z,9.82
2023-01-19T09:26:00.601Z,8.48
2023-01-19T09:28:28.017Z,10.13
2023-01-19T09:30:54.833Z,7.72
2023-01-19T09:33:22.122Z,4.57
2023-01-19T09:35:49.414Z,10.48
2023-01-19T09:38:16.902Z,9.90
2023-01-19T09:40:55.939Z,10.30
2023-01-19T09:43:42.298Z,11.10
2023-01-19T09:46:14.382Z,6.35
2023-01-19T09:48:47.805Z,8.68
2023-01-19T09:51:19.380Z,10.00
2023-01-19T09:54:07.690Z,6.65
2023-01-19T09:56:34.509Z,7.55
2023-01-19T09:59:03.106Z,8.65
2023-01-19T10:01:35.582Z,4.03
2023-01-19T10:04:28.328Z,8.63
2023-01-19T10:07:20.473Z,9.20
2023-01-19T10:09:53.335Z,7.13
2023-01-19T10:12:33.513Z,8.68
2023-01-19T10:15:10.123Z,11.30
2023-01-19T10:17:51.149Z,8.38
2023-01-19T10:20:26.651Z,10.73
2023-01-19T10:22:56.641Z,3.53
2023-01-19T10:25:24.776Z,4.65
2023-01-19T10:27:51.838Z,10.18
2023-01-19T10:30:30.255Z,6.63
2023-01-19T10:32:57.009Z,5.82
2023-01-19T10:35:25.244Z,6.75
2023-01-19T10:37:58.270Z,7.88
2023-01-19T10:40:47.847Z,10.52
2023-01-19T10:43:41.754Z,11.10
2023-01-19T10:46:21.502Z,4.03
2023-01-19T10:48:50.576Z,9.50
2023-01-19T10:51:17.552Z,9.30
2023-01-19T10:53:58.346Z,8.82
2023-01-19T10:56:34.162Z,6.60
2023-01-19T10:59:03.255Z,14.77
2023-01-19T11:01:31.306Z,11.13
2023-01-19T11:04:05.627Z,8.48
2023-01-19T11:06:35.214Z,8.70
2023-01-19T11:09:21.110Z,9.73
2023-01-19T11:11:51.425Z,8.68
2023-01-19T11:14:23.691Z,6.25
2023-01-19T11:16:58.359Z,4.40
2023-01-19T11:19:27.175Z,5.43
2023-01-19T11:22:09.923Z,7.72
2023-01-19T11:24:38.539Z,8.55
2023-01-19T11:27:05.308Z,5.47
2023-01-19T11:29:32.345Z,7.35
2023-01-19T11:32:11.513Z,15.38
2023-01-19T11:34:39.320Z,4.20
2023-01-19T11:37:28.684Z,12.98
2023-01-19T11:40:00.307Z,7.25
2023-01-19T11:42:30.277Z,5.10
2023-01-19T11:45:12.891Z,8.98
2023-01-19T11:47:45.444Z,10.02
2023-01-19T11:50:33.469Z,13.82
2023-01-19T11:53:06.416Z,4.90
2023-01-19T11:55:51.790Z,12.20
2023-01-19T11:58:19.754Z,9.32
2023-01-19T12:01:11.342Z,9.25
2023-01-19T12:04:01.234Z,8.77
2023-01-19T12:06:44.568Z,7.97
2023-01-19T12:09:22.664Z,8.50
2023-01-19T12:11:57.987Z,8.77
2023-01-19T12:14:35.515Z,4.65
2023-01-19T12:17:07.561Z,12.90
2023-01-19T12:20:06.813Z,6.20
2023-01-19T12:22:44.019Z,7.68
2023-01-19T12:25:22.903Z,5.22
2023-01-19T12:27:50.685Z,11.02
2023-01-19T12:30:25.296Z,3.67
2023-01-19T12:32:52.004Z,7.50
2023-01-19T12:35:56.925Z,6.63
2023-01-19T12:38:48.552Z,4.65
2023-01-19T12:41:38.081Z,5.00
2023-01-19T12:44:10.986Z,4.75
2023-01-19T12:46:38.054Z,10.75
2023-01-19T12:49:26.128Z,15.80
2023-01-19T12:52:11.709Z,6.15
2023-01-19T12:54:49.607Z,8.68
2023-01-19T12:57:58.067Z,9.10
2023-01-19T13:02:54.920Z,3.25
2023-01-19T13:05:46.104Z,13.63
2023-01-19T13:08:13.269Z,7.35
2023-01-19T13:11:13.695Z,5.35
2023-01-19T13:13:40.425Z,11.77
2023-01-19T13:16:19.083Z,8.50
2023-01-19T13:18:55.615Z,10.77
2023-01-19T13:21:31.566Z,5.63
2023-01-19T13:24:10.743Z,4.93
2023-01-19T13:26:40.146Z,6.15
2023-01-19T13:29:34.418Z,8.55
2023-01-19T13:32:04.507Z,5.43
2023-01-19T13:34:41.058Z,7.00
2023-01-19T13:37:17.958Z,2.95
2023-01-19T13:39:45.962Z,5.68
2023-01-19T13:42:24.157Z,10.05
2023-01-19T13:44:54.519Z,5.60
2023-01-19T13:47:43.798Z,6.13
2023-01-19T13:50:23.817Z,4.88
2023-01-19T13:52:53.955Z,7.70
2023-01-19T13:55:20.945Z,6.53
2023-01-19T13:57:49.666Z,3.30
2023-01-19T14:00:19.503Z,3.85
2023-01-19T14:03:00.338Z,3.95
2023-01-19T14:05:33.020Z,5.82
2023-01-19T14:08:08.832Z,5.82
2023-01-19T14:10:37.342Z,6.75
2023-01-19T14:13:13.328Z,6.45
2023-01-19T14:15:40.960Z,5.83
2023-01-19T14:18:30.101Z,6.93
2023-01-19T14:21:01.084Z,6.00
2023-01-19T14:23:55.764Z,2.60
2023-01-19T14:26:56.304Z,2.85
2023-01-19T14:29:41.379Z,2.45
2023-01-19T14:32:15.070Z,3.88
2023-01-19T14:34:50.421Z,3.08
2023-01-19T14:37:21.431Z,6.57
2023-01-19T14:40:04.951Z,5.10
2023-01-19T14:42:52.731Z,4.07
2023-01-19T14:45:30.554Z,1.50
2023-01-19T14:48:17.048Z,3.15
2023-01-19T14:53:30.299Z,2.80
2023-01-19T14:56:07.744Z,4.90
2023-01-19T14:58:35.723Z,12.40
2023-01-19T15:01:03.653Z,9.05
2023-01-19T15:03:44.815Z,5.32
2023-01-19T15:06:21.048Z,6.47
2023-01-19T15:08:50.177Z,4.40
2023-01-19T15:11:26.574Z,9.48
2023-01-19T15:13:54.397Z,11.68
2023-01-19T15:16:22.852Z,11.30
2023-01-19T15:18:49.587Z,10.82
2023-01-19T15:21:21.761Z,9.77
2023-01-19T15:23:48.590Z,7.20
2023-01-19T15:26:23.696Z,5.47
2023-01-19T15:28:50.641Z,9.95
2023-01-19T15:31:19.885Z,9.85
2023-01-19T15:33:46.857Z,10.43
2023-01-19T15:36:17.917Z,9.70
2023-01-19T15:38:45.942Z,11.65
2023-01-19T15:41:26.177Z,8.40
2023-01-19T15:43:53.150Z,13.57
2023-01-19T15:46:20.925Z,9.82
2023-01-19T15:48:49.033Z,10.20
2023-01-19T15:51:18.093Z,14.27
2023-01-19T15:53:46.156Z,16.88
2023-01-19T15:56:25.021Z,8.55
2023-01-19T15:58:53.004Z,7.53
2023-01-19T16:01:23.916Z,13.35
2023-01-19T16:03:50.750Z,8.13
2023-01-19T16:06:18.015Z,14.68
2023-01-19T16:08:47.261Z,16.17
2023-01-19T16:11:15.388Z,23.83
2023-01-19T16:13:46.265Z,21.77
2023-01-19T16:16:23.842Z,26.48
2023-01-19T16:18:52.691Z,19.13
2023-01-19T16:21:19.504Z,11.43
2023-01-19T16:23:46.714Z,10.75
2023-01-19T16:26:26.928Z,9.48
2023-01-19T16:29:00.027Z,12.40
2023-01-19T16:31:27.814Z,7.95
2023-01-19T16:33:54.595Z,7.70
2023-01-19T16:36:29.392Z,10.45
2023-01-19T16:39:00.241Z,10.20
2023-01-19T16:41:26.859Z,11.10
2023-01-19T16:43:54.804Z,16.05
2023-01-19T16:46:24.906Z,12.55
2023-01-19T16:48:52.115Z,8.05
2023-01-19T16:51:19.897Z,9.30
2023-01-19T16:53:48.802Z,13.93
2023-01-19T16:56:17.101Z,7.95
2023-01-19T16:58:43.842Z,12.20
2023-01-19T17:01:13.684Z,13.25
2023-01-19T17:03:40.945Z,7.68
2023-01-19T17:06:10.323Z,18.92
2023-01-19T17:08:37.864Z,19.27
2023-01-19T17:11:13.858Z,29.60
2023-01-19T17:13:40.498Z,15.65
2023-01-19T17:16:07.771Z,12.88
2023-01-19T17:18:36.424Z,9.98
2023-01-19T17:21:06.155Z,8.75
2023-01-19T17:23:33.367Z,9.30
2023-01-19T17:26:00.432Z,8.10
2023-01-19T17:28:27.170Z,6.97
2023-01-19T17:30:54.162Z,9.20
2023-01-19T17:33:22.463Z,7.85
2023-01-19T17:35:49.530Z,6.63
2023-01-19T17:38:17.194Z,7.10
2023-01-19T17:40:43.813Z,8.27
2023-01-19T17:43:11.611Z,8.80
2023-01-19T17:45:38.250Z,12.45
2023-01-19T17:48:05.280Z,12.52
2023-01-19T17:50:34.615Z,9.63
2023-01-19T17:53:02.242Z,13.13
2023-01-19T17:55:29.964Z,11.25
2023-01-19T17:57:57.110Z,11.73
2023-01-19T18:00:24.854Z,9.52
2023-01-19T18:02:52.052Z,8.32
2023-01-19T18:05:19.003Z,6.80
2023-01-19T18:07:46.482Z,9.82
2023-01-19T18:10:13.835Z,11.98
2023-01-19T18:12:40.878Z,12.60
2023-01-19T18:15:09.502Z,13.73
2023-01-19T18:17:36.201Z,10.63
2023-01-19T18:20:03.542Z,15.00
2023-01-19T18:22:30.318Z,9.70
2023-01-19T18:24:57.117Z,12.05
2023-01-19T18:27:23.861Z,15.88
2023-01-19T18:29:50.757Z,17.92
2023-01-19T18:32:17.414Z,16.67
2023-01-19T18:34:44.122Z,11.85
2023-01-19T18:37:10.827Z,15.98
2023-01-19T18:39:38.614Z,13.80
2023-01-19T18:42:05.366Z,11.85
2023-01-19T18:44:31.971Z,16.23
2023-01-19T18:46:58.805Z,13.18
2023-01-19T18:49:25.377Z,22.23
2023-01-19T18:51:52.112Z,19.98
2023-01-19T18:54:19.207Z,17.30
2023-01-19T18:56:45.963Z,14.55
2023-01-19T18:59:12.742Z,15.00
2023-01-19T19:01:39.545Z,19.30
2023-01-19T19:04:07.243Z,19.05
2023-01-19T19:06:34.238Z,18.23
2023-01-19T19:09:00.794Z,15.15
2023-01-19T19:11:28.164Z,22.10
2023-01-19T19:14:00.784Z,18.10
2023-01-19T19:16:29.025Z,18.45
2023-01-19T19:18:55.837Z,19.30
2023-01-19T19:21:25.249Z,20.33
2023-01-19T19:23:53.869Z,22.42
2023-01-19T19:26:21.492Z,19.50
2023-01-19T19:28:48.263Z,24.92
2023-01-19T19:31:20.350Z,21.83
2023-01-19T19:33:48.792Z,27.52
2023-01-19T19:36:15.651Z,22.67
2023-01-19T19:38:44.450Z,23.92
2023-01-19T19:41:17.149Z,21.85
2023-01-19T19:43:43.928Z,25.38
2023-01-19T19:46:13.205Z,25.55
2023-01-19T19:48:40.569Z,29.70
2023-01-19T19:51:19.628Z,26.15
2023-01-19T19:53:48.955Z,23.85
2023-01-19T19:56:21.428Z,26.65
2023-01-19T19:58:49.211Z,29.42
2023-01-19T20:01:18.596Z,28.83
2023-01-19T20:03:45.802Z,25.80
2023-01-19T20:06:16.284Z,29.05
2023-01-19T20:08:42.917Z,21.98
2023-01-19T20:11:15.220Z,25.55
2023-01-19T20:13:43.271Z,26.55
2023-01-19T20:16:14.180Z,21.17
2023-01-19T20:18:43.161Z,24.50
2023-01-19T20:21:21.523Z,25.73
2023-01-19T20:23:50.515Z,27.60
2023-01-19T20:26:20.254Z,26.30
2023-01-19T20:28:47.681Z,20.58
2023-01-19T20:31:25.070Z,20.92
2023-01-19T20:33:52.716Z,26.23
2023-01-19T20:36:19.757Z,29.10
2023-01-19T20:38:46.648Z,26.42
2023-01-19T20:41:13.785Z,29.65
2023-01-19T20:43:41.525Z,25.50
2023-01-19T20:46:08.999Z,27.05
2023-01-19T20:48:35.954Z,27.20
2023-01-19T20:51:08.125Z,24.48
2023-01-19T20:53:35.875Z,26.45
2023-01-19T20:56:12.419Z,28.27
2023-01-19T20:58:40.153Z,25.52
2023-01-19T21:01:18.624Z,28.08
2023-01-19T21:03:46.619Z,26.35
2023-01-19T21:06:13.765Z,27.30
2023-01-19T21:08:41.096Z,28.55
2023-01-19T21:11:07.873Z,29.77
2023-01-19T21:13:35.270Z,30.60
2023-01-19T21:16:02.581Z,25.45
2023-01-19T21:18:29.276Z,25.05
2023-01-19T21:20:59.318Z,21.83
2023-01-19T21:23:28.326Z,21.30
2023-01-19T21:25:57.184Z,28.20
2023-01-19T21:28:24.835Z,25.52
2023-01-19T21:30:52.631Z,23.23
2023-01-19T21:33:20.769Z,23.85
2023-01-19T21:35:56.860Z,23.92
2023-01-19T21:38:26.813Z,22.10
2023-01-19T21:40:54.270Z,22.63
2023-01-19T21:43:21.508Z,27.40
2023-01-19T21:45:48.918Z,30.70
2023-01-19T21:48:16.777Z,25.88
2023-01-19T21:50:45.209Z,28.92
2023-01-19T21:53:11.942Z,23.48
2023-01-19T21:55:44.559Z,23.17
2023-01-19T21:58:11.357Z,26.00
2023-01-19T22:00:37.991Z,28.42
2023-01-19T22:03:05.026Z,26.67
2023-01-19T22:05:36.834Z,25.30
2023-01-19T22:08:04.935Z,25.67
2023-01-19T22:10:31.728Z,19.65
2023-01-19T22:12:58.354Z,26.27
2023-01-19T22:15:24.971Z,25.38
2023-01-19T22:17:51.602Z,22.85
2023-01-19T22:20:18.366Z,15.35
2023-01-19T22:22:45.011Z,16.67
2023-01-19T22:25:11.759Z,19.23
2023-01-19T22:27:38.858Z,18.40
2023-01-19T22:30:06.313Z,20.38
2023-01-19T22:32:32.834Z,21.38
2023-01-19T22:34:59.442Z,18.20
2023-01-19T22:37:26.157Z,14.60
2023-01-19T22:39:53.493Z,15.30
2023-01-19T22:42:20.157Z,15.65
2023-01-19T22:44:46.934Z,20.55
2023-01-19T22:47:13.838Z,16.10
2023-01-19T22:49:40.778Z,18.23
2023-01-19T22:52:07.917Z,19.38
2023-01-19T22:54:34.516Z,16.85
2023-01-19T22:57:01.440Z,20.13
2023-01-19T22:59:28.164Z,19.00
2023-01-19T23:01:55.031Z,19.90
2023-01-19T23:04:21.735Z,16.27
2023-01-19T23:06:50.574Z,33.53
2023-01-19T23:09:18.232Z,13.82
2023-01-19T23:11:51.191Z,21.45
2023-01-19T23:14:20.869Z,26.90
2023-01-19T23:16:48.013Z,20.52
2023-01-19T23:19:17.018Z,23.85
2023-01-19T23:21:44.164Z,24.15
2023-01-19T23:24:11.738Z,24.95
2023-01-19T23:26:38.853Z,23.90
2023-01-19T23:29:08.605Z,20.27
2023-01-19T23:31:37.103Z,18.38
2023-01-19T23:34:07.259Z,26.60
2023-01-19T23:36:36.189Z,20.40
2023-01-19T23:39:06.369Z,20.30
2023-01-19T23:41:36.319Z,23.75
2023-01-19T23:44:04.239Z,29.38
2023-01-19T23:46:30.945Z,25.02
2023-01-19T23:48:57.762Z,22.40
2023-01-19T23:51:30.193Z,23.52
2023-01-19T23:53:58.335Z,25.58
2023-01-19T23:56:30.869Z,19.92
2023-01-19T23:59:07.508Z,21.63
